Time;durP1;ratioP1;P1;durP2;ratioP2;P2;SDS_P1;SDS_P2;PMS_P1;PMS_P2;Temp;Humidity;BMP_temperature;BMP_pressure;BME280_temperature;BME280_humidity;BME280_pressure;Samples;Min_cycle;Max_cycle;Signal;HPM_P1;HPM_P2
2023/04/10 00:01:35;;;;;;;40.70;33.60;;;7.60;99.90;;;;;;4753005;30;20077;-84
2023/04/10 00:04:01;;;;;;;43.55;33.83;;;7.50;99.90;;;;;;4767167;30;20050;-84
2023/04/10 00:06:27;;;;;;;39.03;32.40;;;7.60;99.90;;;;;;4752410;30;20044;-84
2023/04/10 00:08:53;;;;;;;41.67;34.53;;;7.50;99.90;;;;;;4752718;30;20407;-84
2023/04/10 00:11:18;;;;;;;43.50;34.50;;;7.50;99.90;;;;;;4768739;30;20043;-84
2023/04/10 00:13:44;;;;;;;42.45;34.45;;;7.50;99.90;;;;;;4753363;30;20048;-84
2023/04/10 00:16:10;;;;;;;42.90;35.22;;;7.50;99.90;;;;;;4752969;30;20039;-84
2023/04/10 00:18:36;;;;;;;44.65;35.50;;;7.50;99.90;;;;;;4766944;30;20047;-84
2023/04/10 00:21:05;;;;;;;46.55;34.75;;;7.40;99.90;;;;;;4752588;30;20039;-85
2023/04/10 00:23:31;;;;;;;43.75;35.38;;;7.40;99.90;;;;;;4752321;30;20035;-84
2023/04/10 00:25:57;;;;;;;44.20;34.38;;;7.40;99.90;;;;;;4752873;30;20048;-84
2023/04/10 00:28:22;;;;;;;42.03;34.05;;;7.30;99.90;;;;;;4765117;30;20044;-85
2023/04/10 00:30:48;;;;;;;44.30;34.83;;;7.70;99.90;;;;;;4752403;30;20140;-84
2023/04/10 00:33:13;;;;;;;45.05;35.60;;;7.50;99.90;;;;;;4751749;30;20047;-85
2023/04/10 00:35:39;;;;;;;45.67;36.20;;;7.30;99.90;;;;;;4750535;30;20054;-84
2023/04/10 00:38:05;;;;;;;44.60;35.92;;;7.30;99.90;;;;;;4753875;30;20048;-84
2023/04/10 00:40:30;;;;;;;49.15;38.10;;;7.30;99.90;;;;;;4767362;30;20097;-84
2023/04/10 00:42:56;;;;;;;48.92;36.55;;;7.20;99.90;;;;;;4766909;30;20488;-84
2023/04/10 00:45:22;;;;;;;46.40;36.47;;;7.20;99.90;;;;;;4749487;30;20044;-84
2023/04/10 00:47:47;;;;;;;49.53;37.88;;;7.20;99.90;;;;;;4750434;30;20143;-84
2023/04/10 00:50:13;;;;;;;49.75;38.83;;;7.20;99.90;;;;;;4751998;30;20046;-84
2023/04/10 00:52:39;;;;;;;50.67;38.83;;;7.20;99.90;;;;;;4766739;30;20058;-84
2023/04/10 00:55:05;;;;;;;47.20;37.30;;;7.10;99.90;;;;;;4752358;30;20043;-85
2023/04/10 00:57:32;;;;;;;46.42;36.22;;;7.10;99.90;;;;;;4751209;30;20074;-86
2023/04/10 00:59:57;;;;;;;52.65;39.42;;;7.10;99.90;;;;;;4750955;30;20112;-84
2023/04/10 01:02:23;;;;;;;51.22;39.42;;;7.10;99.90;;;;;;4752227;30;20043;-84
2023/04/10 01:04:48;;;;;;;49.60;39.10;;;7.00;99.90;;;;;;4750226;30;20098;-84
2023/04/10 01:07:34;;;;;;;48.30;39.75;;;7.00;99.90;;;;;;4754085;30;20047;-84
2023/04/10 01:10:18;;;;;;;48.90;39.63;;;7.00;99.90;;;;;;4768402;30;20048;-84
2023/04/10 01:13:15;;;;;;;50.67;40.10;;;7.00;99.90;;;;;;4750594;30;20067;-84
2023/04/10 01:15:57;;;;;;;49.72;40.80;;;7.00;99.90;;;;;;4766778;30;20659;-86
2023/04/10 01:18:47;;;;;;;55.60;42.92;;;7.00;99.90;;;;;;4752618;30;20135;-84
2023/04/10 01:21:15;;;;;;;54.75;40.22;;;7.40;99.90;;;;;;4755296;30;20112;-84
2023/04/10 01:23:57;;;;;;;53.33;40.65;;;7.00;99.90;;;;;;4770902;30;20471;-84
2023/04/10 01:26:36;;;;;;;50.92;40.30;;;6.90;99.90;;;;;;4752250;30;20044;-83
2023/04/10 01:29:07;;;;;;;53.85;42.65;;;6.90;99.90;;;;;;4767247;30;20066;-86
2023/04/10 01:31:45;;;;;;;54.65;43.15;;;6.90;99.90;;;;;;4752296;30;20052;-84
2023/04/10 01:34:41;;;;;;;61.05;43.70;;;6.90;99.90;;;;;;4749324;30;20122;-83
2023/04/10 01:37:15;;;;;;;56.33;44.43;;;6.80;99.90;;;;;;4747020;30;20204;-84
2023/04/10 01:39:42;;;;;;;56.55;42.78;;;6.80;99.90;;;;;;4752720;30;20309;-87
2023/04/10 01:42:11;;;;;;;53.53;41.03;;;6.90;99.90;;;;;;4751850;30;20515;-85
2023/04/10 01:44:41;;;;;;;55.20;43.22;;;6.90;99.90;;;;;;4752323;30;20397;-84
2023/04/10 01:47:07;;;;;;;53.22;43.30;;;6.80;99.90;;;;;;4750479;30;20043;-84
2023/04/10 01:49:34;;;;;;;58.60;45.63;;;6.90;99.90;;;;;;4750428;30;20503;-85
2023/04/10 01:52:00;;;;;;;57.10;45.15;;;6.90;99.90;;;;;;4752570;30;20044;-84
2023/04/10 01:54:31;;;;;;;59.28;43.75;;;6.80;99.90;;;;;;4752485;30;20051;-84
2023/04/10 01:57:02;;;;;;;56.55;43.90;;;6.80;99.90;;;;;;4740454;30;20043;-84
2023/04/10 01:59:28;;;;;;;57.50;45.42;;;6.90;99.90;;;;;;4755825;30;20051;-83
2023/04/10 02:01:58;;;;;;;58.83;43.50;;;6.90;99.90;;;;;;4750986;30;20052;-84
2023/04/10 02:04:25;;;;;;;58.30;45.47;;;6.80;99.90;;;;;;4761044;30;20039;-84
2023/04/10 02:07:10;;;;;;;58.28;46.15;;;6.80;99.90;;;;;;4753888;30;20085;-82
2023/04/10 02:09:40;;;;;;;57.63;44.90;;;6.70;99.90;;;;;;4758924;30;20445;-83
2023/04/10 02:12:11;;;;;;;57.90;45.35;;;6.80;99.90;;;;;;4756918;30;20055;-84
2023/04/10 02:14:42;;;;;;;58.53;47.80;;;6.70;99.90;;;;;;4760570;30;20039;-85
2023/04/10 02:17:12;;;;;;;60.70;49.15;;;6.70;99.90;;;;;;4761166;30;20058;-84
2023/04/10 02:19:39;;;;;;;59.28;47.63;;;6.70;99.90;;;;;;4755061;30;20048;-84
2023/04/10 02:22:05;;;;;;;58.28;45.17;;;6.70;99.90;;;;;;4754929;30;20047;-83
2023/04/10 02:24:32;;;;;;;60.55;45.63;;;6.70;99.90;;;;;;4773899;30;20035;-83
2023/04/10 02:26:58;;;;;;;57.80;47.58;;;6.70;99.90;;;;;;4756956;30;20043;-84
2023/04/10 02:29:23;;;;;;;65.93;50.78;;;6.70;99.90;;;;;;4764287;30;20051;-83
2023/04/10 02:31:49;;;;;;;60.13;46.78;;;6.70;99.90;;;;;;4755540;30;20070;-84
2023/04/10 02:34:15;;;;;;;58.63;48.42;;;6.70;99.90;;;;;;4758755;30;20127;-84
2023/04/10 02:36:40;;;;;;;61.08;48.28;;;6.70;99.90;;;;;;4761713;30;20195;-87
2023/04/10 02:39:07;;;;;;;63.47;48.15;;;6.70;99.90;;;;;;4770247;30;20107;-84
2023/04/10 02:41:32;;;;;;;62.42;47.97;;;7.10;99.90;;;;;;4758766;30;20051;-84
2023/04/10 02:43:58;;;;;;;60.55;49.83;;;6.60;99.90;;;;;;4753716;30;20032;-85
2023/04/10 02:46:25;;;;;;;61.40;48.53;;;6.60;99.90;;;;;;4754479;30;20035;-84
2023/04/10 02:48:54;;;;;;;62.60;49.00;;;6.50;99.90;;;;;;4756053;30;20052;-84
2023/04/10 02:51:20;;;;;;;58.45;46.53;;;6.50;99.90;;;;;;4754964;30;20066;-84
2023/04/10 02:53:46;;;;;;;60.70;49.03;;;6.50;99.90;;;;;;4760281;30;20500;-85
2023/04/10 02:56:12;;;;;;;61.95;49.22;;;6.50;99.90;;;;;;4757480;30;20052;-84
2023/04/10 02:58:38;;;;;;;62.55;49.03;;;6.50;99.90;;;;;;4755050;30;20052;-84
2023/04/10 03:01:06;;;;;;;61.60;49.13;;;6.40;99.90;;;;;;4758034;30;20047;-83
2023/04/10 03:03:32;;;;;;;63.50;48.80;;;6.40;99.90;;;;;;4756486;30;20054;-84
2023/04/10 03:05:57;;;;;;;58.80;48.30;;;6.50;99.90;;;;;;4770290;30;20044;-84
2023/04/10 03:08:23;;;;;;;60.10;46.90;;;6.50;99.90;;;;;;4755708;30;20067;-85
2023/04/10 03:10:48;;;;;;;61.15;47.50;;;6.40;99.90;;;;;;4761835;30;20047;-83
2023/04/10 03:13:15;;;;;;;60.50;47.22;;;6.40;99.90;;;;;;4769889;30;20056;-84
2023/04/10 03:15:41;;;;;;;63.75;46.10;;;6.50;99.90;;;;;;4761060;30;20131;-83
2023/04/10 03:18:07;;;;;;;60.03;45.17;;;6.50;99.90;;;;;;4754099;30;20122;-84
2023/04/10 03:20:35;;;;;;;61.65;46.70;;;6.50;99.90;;;;;;4755838;30;20039;-83
2023/04/10 03:23:00;;;;;;;56.80;45.80;;;6.70;99.90;;;;;;4765273;30;20159;-84
2023/04/10 03:25:26;;;;;;;59.55;45.53;;;6.50;99.90;;;;;;4753728;30;20043;-84
2023/04/10 03:27:52;;;;;;;59.20;46.85;;;6.40;99.90;;;;;;4755929;30;20062;-84
2023/04/10 03:30:17;;;;;;;58.78;45.35;;;6.70;99.90;;;;;;4755611;30;20491;-83
2023/04/10 03:32:43;;;;;;;57.67;45.65;;;6.90;99.90;;;;;;4754227;30;20048;-84
2023/04/10 03:35:09;;;;;;;56.05;44.38;;;6.50;99.90;;;;;;4755889;30;20526;-84
2023/04/10 03:37:35;;;;;;;64.30;44.78;;;6.50;99.90;;;;;;4753977;30;20531;-84
2023/04/10 03:40:04;;;;;;;57.67;45.22;;;6.50;99.90;;;;;;4739455;30;20083;-84
2023/04/10 03:42:30;;;;;;;60.40;45.88;;;6.50;99.90;;;;;;4753709;30;20040;-84
2023/04/10 03:44:55;;;;;;;57.17;45.25;;;6.40;99.90;;;;;;4755028;30;20105;-83
2023/04/10 03:47:21;;;;;;;59.67;46.30;;;6.40;99.90;;;;;;4743753;30;20109;-84
2023/04/10 03:49:46;;;;;;;57.55;44.70;;;6.40;99.90;;;;;;4754585;30;20130;-84
2023/04/10 03:52:12;;;;;;;57.97;44.92;;;6.40;99.90;;;;;;4758034;30;20484;-84
2023/04/10 03:54:37;;;;;;;53.92;44.15;;;6.30;99.90;;;;;;4770702;30;20040;-83
2023/04/10 03:57:03;;;;;;;55.75;43.88;;;6.30;99.90;;;;;;4755173;30;20062;-84
2023/04/10 03:59:29;;;;;;;60.85;48.67;;;6.30;99.90;;;;;;4753428;30;20097;-84
2023/04/10 04:01:55;;;;;;;57.63;45.60;;;6.30;99.90;;;;;;4752456;30;20043;-85
2023/04/10 04:04:20;;;;;;;61.80;46.05;;;6.30;99.90;;;;;;4754530;30;20130;-84
2023/04/10 04:06:47;;;;;;;55.45;44.58;;;6.40;99.90;;;;;;4739071;30;21693;-84
2023/04/10 04:09:13;;;;;;;58.05;45.75;;;6.40;99.90;;;;;;4758571;30;20043;-84
2023/04/10 04:11:38;;;;;;;57.08;44.35;;;6.50;99.90;;;;;;4739362;30;20504;-83
2023/04/10 04:14:04;;;;;;;58.00;44.22;;;6.40;99.90;;;;;;4738027;30;20044;-84
2023/04/10 04:16:29;;;;;;;59.53;46.25;;;7.10;99.90;;;;;;4752744;30;20052;-84
2023/04/10 04:18:55;;;;;;;55.67;44.92;;;6.50;99.90;;;;;;4754513;30;20058;-83
2023/04/10 04:21:21;;;;;;;53.55;43.20;;;6.50;99.90;;;;;;4750682;30;20050;-84
2023/04/10 04:23:46;;;;;;;56.95;44.45;;;6.60;99.90;;;;;;4751889;30;20052;-84
2023/04/10 04:26:12;;;;;;;52.25;42.35;;;6.70;99.90;;;;;;4754307;30;20061;-84
2023/04/10 04:28:37;;;;;;;54.17;44.42;;;6.60;99.90;;;;;;4752311;30;20122;-84
2023/04/10 04:31:03;;;;;;;52.90;42.28;;;6.70;99.90;;;;;;4766745;30;20078;-84
2023/04/10 04:33:29;;;;;;;53.65;40.97;;;6.70;99.90;;;;;;4751081;30;20399;-84
2023/04/10 04:35:56;;;;;;;52.80;43.42;;;6.80;99.90;;;;;;4769383;30;20487;-84
2023/04/10 04:38:21;;;;;;;53.17;41.78;;;6.80;99.90;;;;;;4753947;30;20048;-83
2023/04/10 04:40:47;;;;;;;50.10;39.67;;;6.80;99.90;;;;;;4740439;30;20092;-84
2023/04/10 04:43:12;;;;;;;51.50;39.25;;;6.80;99.90;;;;;;4754835;30;20104;-85
2023/04/10 04:45:38;;;;;;;49.38;38.10;;;6.80;99.90;;;;;;4758016;30;20039;-84
2023/04/10 04:48:03;;;;;;;48.53;39.65;;;6.90;99.90;;;;;;4752300;30;20047;-83
2023/04/10 04:50:29;;;;;;;49.22;38.97;;;6.90;99.90;;;;;;4750432;30;20048;-84
2023/04/10 04:52:54;;;;;;;52.90;40.88;;;7.00;99.90;;;;;;4769474;30;20047;-86
2023/04/10 04:55:20;;;;;;;49.10;39.28;;;7.00;99.90;;;;;;4749422;30;20039;-84
2023/04/10 04:57:45;;;;;;;49.35;38.25;;;7.00;99.90;;;;;;4766088;30;20055;-84
2023/04/10 05:00:11;;;;;;;46.55;37.33;;;7.10;99.90;;;;;;4745108;30;20036;-84
2023/04/10 05:02:37;;;;;;;46.65;38.92;;;7.10;99.90;;;;;;4738845;30;20039;-84
2023/04/10 05:05:03;;;;;;;48.35;39.25;;;7.10;99.90;;;;;;4753549;30;20424;-84
2023/04/10 05:07:28;;;;;;;48.70;37.08;;;7.10;99.90;;;;;;4756714;30;20046;-84
2023/04/10 05:09:54;;;;;;;42.67;36.33;;;7.10;99.90;;;;;;4754284;30;20055;-84
2023/04/10 05:12:20;;;;;;;47.05;37.33;;;7.20;99.90;;;;;;4757009;30;20044;-84
2023/04/10 05:14:45;;;;;;;46.53;36.80;;;7.20;99.90;;;;;;4759229;30;20074;-86
2023/04/10 05:17:11;;;;;;;44.80;36.30;;;7.30;99.90;;;;;;4753408;30;20121;-84
2023/04/10 05:19:36;;;;;;;43.42;36.00;;;7.30;99.90;;;;;;4768424;30;20506;-84
2023/04/10 05:22:02;;;;;;;43.55;34.40;;;7.40;99.90;;;;;;4752858;30;20047;-84
2023/04/10 05:24:27;;;;;;;44.60;35.33;;;7.40;99.90;;;;;;4756331;30;20564;-85
2023/04/10 05:26:53;;;;;;;43.78;33.88;;;7.50;99.90;;;;;;4768573;30;20047;-83
2023/04/10 05:29:19;;;;;;;44.80;35.50;;;7.60;99.90;;;;;;4749513;30;20047;-84
2023/04/10 05:31:45;;;;;;;42.63;35.00;;;7.70;99.90;;;;;;4767039;30;20210;-84
2023/04/10 05:34:11;;;;;;;42.53;32.67;;;7.70;99.90;;;;;;4770684;30;20600;-84
2023/04/10 05:36:36;;;;;;;40.25;32.47;;;7.80;99.90;;;;;;4775442;30;20100;-84
2023/04/10 05:39:02;;;;;;;42.63;32.80;;;8.00;99.90;;;;;;4754861;30;20530;-84
2023/04/10 05:41:27;;;;;;;41.47;33.13;;;8.00;99.90;;;;;;4750787;30;20419;-84
2023/04/10 05:43:53;;;;;;;39.55;32.33;;;8.40;99.90;;;;;;4766214;30;20066;-84
2023/04/10 05:46:18;;;;;;;39.35;31.85;;;8.60;99.90;;;;;;4758105;30;20048;-84
2023/04/10 05:48:44;;;;;;;41.40;32.50;;;9.00;99.90;;;;;;4757230;30;20059;-84
2023/04/10 05:51:10;;;;;;;36.38;31.00;;;9.30;99.90;;;;;;4754469;30;20050;-84
2023/04/10 05:53:35;;;;;;;39.63;30.10;;;9.50;99.90;;;;;;4757449;30;20083;-85
2023/04/10 05:56:01;;;;;;;37.60;32.00;;;9.60;99.90;;;;;;4755465;30;20055;-84
2023/04/10 05:58:27;;;;;;;38.63;30.98;;;9.90;99.90;;;;;;4755639;30;20039;-84
2023/04/10 06:00:54;;;;;;;37.72;30.02;;;10.10;99.90;;;;;;4754767;30;20047;-83
2023/04/10 06:03:22;;;;;;;37.40;31.40;;;10.20;99.90;;;;;;4770671;30;20043;-85
2023/04/10 06:05:49;;;;;;;37.63;30.60;;;10.40;99.90;;;;;;4775285;30;20054;-83
2023/04/10 06:08:15;;;;;;;38.03;31.05;;;10.80;99.90;;;;;;4760168;30;20055;-84
2023/04/10 06:10:41;;;;;;;37.00;30.33;;;11.30;99.90;;;;;;4769562;30;20059;-87
2023/04/10 06:13:07;;;;;;;40.92;31.27;;;11.70;99.90;;;;;;4756177;30;20047;-83
2023/04/10 06:15:33;;;;;;;37.78;31.00;;;11.90;99.90;;;;;;4771398;30;20051;-83
2023/04/10 06:17:59;;;;;;;37.65;29.52;;;13.30;99.90;;;;;;4773201;30;20041;-83
2023/04/10 06:20:24;;;;;;;37.40;29.92;;;13.10;99.90;;;;;;4757498;30;20119;-85
2023/04/10 06:22:51;;;;;;;38.20;32.25;;;13.60;99.90;;;;;;4759019;30;20173;-85
2023/04/10 06:25:21;;;;;;;35.47;30.00;;;14.00;99.90;;;;;;4771301;30;20126;-83
2023/04/10 06:27:46;;;;;;;36.22;30.70;;;14.30;99.90;;;;;;4757292;30;20051;-85
2023/04/10 06:30:12;;;;;;;37.70;30.95;;;14.60;99.90;;;;;;4772479;30;20131;-86
2023/04/10 06:32:37;;;;;;;39.97;31.48;;;15.00;99.90;;;;;;4773874;30;20044;-84
2023/04/10 06:35:04;;;;;;;35.15;29.92;;;15.50;99.90;;;;;;4779469;30;20396;-83
2023/04/10 06:37:30;;;;;;;35.47;30.02;;;14.90;99.90;;;;;;4761107;30;20055;-84
2023/04/10 06:40:10;;;;;;;34.10;29.25;;;15.00;99.90;;;;;;4776754;30;20053;-83
2023/04/10 06:42:36;;;;;;;36.72;30.27;;;14.90;99.90;;;;;;4761631;30;20043;-84
2023/04/10 06:45:03;;;;;;;33.28;29.58;;;15.00;99.90;;;;;;4742216;30;20126;-83
2023/04/10 06:47:29;;;;;;;34.15;29.02;;;15.00;99.90;;;;;;4757573;30;20403;-83
2023/04/10 06:49:54;;;;;;;33.60;30.00;;;15.10;99.90;;;;;;4756280;30;20114;-83
2023/04/10 06:52:20;;;;;;;32.47;28.35;;;15.40;99.90;;;;;;4754756;30;20059;-83
2023/04/10 06:54:46;;;;;;;33.35;28.90;;;15.60;99.90;;;;;;4770177;30;21044;-86
2023/04/10 06:57:14;;;;;;;35.85;29.95;;;16.00;99.90;;;;;;4771369;30;20043;-85
2023/04/10 06:59:47;;;;;;;34.20;29.70;;;16.20;99.90;;;;;;4755713;30;20058;-86
2023/04/10 07:02:14;;;;;;;34.72;30.35;;;16.10;99.90;;;;;;4741126;30;20173;-86
2023/04/10 07:04:41;;;;;;;34.50;30.67;;;15.50;99.90;;;;;;4768995;30;20062;-84
2023/04/10 07:07:08;;;;;;;33.70;28.90;;;15.20;99.90;;;;;;4754132;30;20040;-85
2023/04/10 07:09:34;;;;;;;36.92;29.80;;;15.40;99.90;;;;;;4748516;30;20051;-85
2023/04/10 07:12:00;;;;;;;34.30;28.67;;;14.30;99.90;;;;;;4739604;30;20040;-86
2023/04/10 07:14:25;;;;;;;36.10;28.67;;;14.10;99.90;;;;;;4752840;30;20090;-85
2023/04/10 07:16:52;;;;;;;33.28;27.98;;;14.00;99.90;;;;;;4753795;30;20044;-86
2023/04/10 07:19:18;;;;;;;32.20;27.95;;;13.90;99.90;;;;;;4768624;30;20618;-85
2023/04/10 07:21:44;;;;;;;31.85;27.92;;;13.70;99.90;;;;;;4753568;30;20127;-85
2023/04/10 07:24:10;;;;;;;32.92;27.67;;;13.70;99.90;;;;;;4754217;30;20138;-86
2023/04/10 07:26:35;;;;;;;34.75;26.98;;;13.70;99.90;;;;;;4752276;30;20052;-84
2023/04/10 07:29:01;;;;;;;31.60;25.35;;;13.50;99.90;;;;;;4753498;30;20047;-85
2023/04/10 07:31:27;;;;;;;30.77;26.65;;;13.50;99.90;;;;;;4748948;30;20063;-85
2023/04/10 07:33:52;;;;;;;31.65;26.95;;;13.40;99.90;;;;;;4767864;30;20053;-87
2023/04/10 07:36:18;;;;;;;30.52;25.85;;;13.60;99.90;;;;;;4751351;30;20043;-85
2023/04/10 07:38:44;;;;;;;27.95;24.02;;;13.60;99.90;;;;;;4750698;30;20120;-85
2023/04/10 07:41:15;;;;;;;28.58;24.33;;;13.70;99.90;;;;;;4768382;30;20046;-86
2023/04/10 07:43:41;;;;;;;27.05;23.13;;;13.60;99.90;;;;;;4754179;30;20051;-83
2023/04/10 07:46:06;;;;;;;30.02;22.67;;;13.70;99.90;;;;;;4755941;30;20044;-84
2023/04/10 07:48:33;;;;;;;26.85;22.02;;;13.70;99.90;;;;;;4755478;30;20052;-84
2023/04/10 07:50:59;;;;;;;24.38;21.02;;;13.80;99.90;;;;;;4739200;30;20048;-85
2023/04/10 07:53:28;;;;;;;23.75;21.08;;;13.90;99.90;;;;;;4766241;30;20063;-87
2023/04/10 07:55:54;;;;;;;24.67;20.70;;;14.00;99.90;;;;;;4739560;30;20048;-85
2023/04/10 07:58:21;;;;;;;25.77;22.05;;;14.00;99.90;;;;;;4754059;30;20067;-85
2023/04/10 08:00:51;;;;;;;27.17;21.55;;;14.10;99.90;;;;;;4767023;30;20048;-85
2023/04/10 08:03:23;;;;;;;23.35;20.85;;;14.10;99.90;;;;;;4774196;30;20058;-85
2023/04/10 08:05:50;;;;;;;28.92;20.77;;;14.10;99.90;;;;;;4750508;30;20044;-85
2023/04/10 08:08:16;;;;;;;23.40;19.85;;;14.10;99.90;;;;;;4782732;30;20043;-87
2023/04/10 08:10:42;;;;;;;24.38;20.27;;;14.20;99.90;;;;;;4749437;30;20419;-85
2023/04/10 08:13:08;;;;;;;24.08;20.30;;;14.30;99.90;;;;;;4765640;30;20043;-85
2023/04/10 08:15:34;;;;;;;22.25;19.83;;;14.20;99.90;;;;;;4756638;30;20514;-86
2023/04/10 08:18:00;;;;;;;23.60;19.52;;;14.40;99.90;;;;;;4750427;30;20044;-86
2023/04/10 08:20:27;;;;;;;23.05;18.65;;;14.40;99.90;;;;;;4767546;30;20043;-85
2023/04/10 08:22:53;;;;;;;23.90;19.67;;;14.50;99.90;;;;;;4753449;30;20110;-85
2023/04/10 08:25:18;;;;;;;21.10;18.48;;;14.40;99.90;;;;;;4769113;30;20043;-84
2023/04/10 08:27:44;;;;;;;20.77;18.33;;;15.30;99.90;;;;;;4753405;30;20449;-83
2023/04/10 08:30:10;;;;;;;22.20;17.80;;;14.40;99.90;;;;;;4763613;30;20052;-84
2023/04/10 08:32:37;;;;;;;19.45;17.38;;;14.30;99.90;;;;;;4750642;30;20048;-85
2023/04/10 08:35:02;;;;;;;19.60;17.45;;;14.40;99.90;;;;;;4752988;30;20046;-85
2023/04/10 08:37:28;;;;;;;19.45;17.30;;;14.50;99.90;;;;;;4752908;30;20036;-85
2023/04/10 08:39:55;;;;;;;21.35;17.35;;;14.60;99.90;;;;;;4750843;30;20092;-86
2023/04/10 08:42:21;;;;;;;19.17;16.65;;;14.70;99.90;;;;;;4754863;30;20070;-85
2023/04/10 08:44:48;;;;;;;17.90;15.75;;;14.90;99.90;;;;;;4752551;30;20122;-85
2023/04/10 08:47:18;;;;;;;17.80;14.40;;;15.40;99.90;;;;;;4752798;30;20075;-85
2023/04/10 08:49:54;;;;;;;20.65;14.40;;;14.80;99.90;;;;;;4755806;30;20039;-85
2023/04/10 08:52:22;;;;;;;17.23;15.43;;;15.20;99.90;;;;;;4754165;30;20036;-87
2023/04/10 08:54:54;;;;;;;18.00;14.38;;;15.00;99.90;;;;;;4756791;30;20051;-85
2023/04/10 08:57:21;;;;;;;16.35;14.65;;;15.00;99.90;;;;;;4767835;30;20088;-82
2023/04/10 08:59:48;;;;;;;16.40;14.63;;;15.10;99.90;;;;;;4768109;30;20130;-82
2023/04/10 09:02:13;;;;;;;17.42;13.43;;;15.20;99.90;;;;;;4767770;30;20086;-82
2023/04/10 09:04:39;;;;;;;17.05;13.90;;;15.20;99.90;;;;;;4755311;30;20094;-83
2023/04/10 09:07:05;;;;;;;15.73;12.90;;;15.30;99.90;;;;;;4753601;30;20517;-82
2023/04/10 09:09:33;;;;;;;13.38;12.05;;;15.30;99.90;;;;;;4749580;30;20059;-86
2023/04/10 09:12:01;;;;;;;15.60;12.98;;;15.30;99.90;;;;;;4748953;30;20113;-85
2023/04/10 09:14:34;;;;;;;13.52;12.13;;;15.40;99.90;;;;;;4752012;30;20079;-86
2023/04/10 09:17:19;;;;;;;13.35;11.95;;;15.50;99.90;;;;;;4751426;30;20044;-86
2023/04/10 09:19:48;;;;;;;14.23;12.73;;;15.30;99.30;;;;;;4769873;30;20062;-85
2023/04/10 09:22:15;;;;;;;12.82;11.52;;;15.50;99.90;;;;;;4756730;30;20044;-85
2023/04/10 09:24:43;;;;;;;12.40;11.07;;;16.10;99.90;;;;;;4758268;30;20063;-86
2023/04/10 09:27:09;;;;;;;12.75;11.43;;;15.90;99.90;;;;;;4748192;30;20040;-86
2023/04/10 09:29:39;;;;;;;12.30;11.10;;;15.60;99.90;;;;;;4757355;30;20294;-84
2023/04/10 09:32:04;;;;;;;12.95;10.82;;;15.40;99.90;;;;;;4754241;30;20471;-84
2023/04/10 09:34:30;;;;;;;11.48;10.40;;;15.30;99.60;;;;;;4769791;30;20048;-88
2023/04/10 09:36:57;;;;;;;11.80;10.55;;;15.20;99.80;;;;;;4772375;30;20058;-83
2023/04/10 09:39:41;;;;;;;11.63;10.48;;;15.10;99.90;;;;;;4772443;30;20553;-83
2023/04/10 09:42:08;;;;;;;10.00;9.00;;;15.20;99.90;;;;;;4773058;30;20105;-82
2023/04/10 09:44:36;;;;;;;10.98;9.88;;;15.30;99.90;;;;;;4771764;30;20057;-83
2023/04/10 09:47:17;;;;;;;10.10;9.10;;;15.30;99.90;;;;;;4770749;30;20166;-87
2023/04/10 09:49:54;;;;;;;13.20;10.07;;;15.40;99.90;;;;;;4738893;30;20407;-86
2023/04/10 09:52:44;;;;;;;12.82;9.48;;;16.20;99.90;;;;;;4772304;30;20098;-85
2023/04/10 09:55:16;;;;;;;9.13;8.13;;;15.50;99.90;;;;;;4758721;30;20191;-87
2023/04/10 09:57:43;;;;;;;9.90;8.90;;;15.60;99.40;;;;;;4762089;30;20055;-85
2023/04/10 10:00:09;;;;;;;11.13;7.95;;;15.50;99.10;;;;;;4761657;30;20411;-86
2023/04/10 10:02:38;;;;;;;8.52;7.63;;;15.70;99.90;;;;;;4760734;30;20058;-87
2023/04/10 10:05:33;;;;;;;9.82;8.13;;;15.70;99.20;;;;;;4748325;30;21628;-85
2023/04/10 10:08:01;;;;;;;8.80;7.95;;;16.00;99.00;;;;;;4757449;30;20052;-84
2023/04/10 10:10:30;;;;;;;9.43;8.43;;;16.00;99.00;;;;;;4770909;30;20089;-85
2023/04/10 10:13:03;;;;;;;8.68;7.68;;;15.90;98.40;;;;;;4761038;30;20047;-86
2023/04/10 10:16:01;;;;;;;8.57;7.43;;;16.00;99.50;;;;;;4764503;30;20126;-84
2023/04/10 10:19:12;;;;;;;8.27;7.47;;;16.00;99.50;;;;;;4785064;30;20047;-88
2023/04/10 10:22:00;;;;;;;8.23;7.30;;;16.00;98.40;;;;;;4771810;30;20039;-84
2023/04/10 10:24:28;;;;;;;8.15;7.38;;;15.90;98.60;;;;;;4757734;30;20054;-84
2023/04/10 10:26:57;;;;;;;11.68;8.30;;;15.70;98.30;;;;;;4755986;30;20036;-85
2023/04/10 10:29:23;;;;;;;9.45;7.35;;;15.70;99.50;;;;;;4759352;30;20052;-85
2023/04/10 10:31:51;;;;;;;7.60;6.90;;;15.80;99.90;;;;;;4753731;30;20558;-84
2023/04/10 10:34:17;;;;;;;7.70;6.85;;;15.60;99.70;;;;;;4755620;30;20044;-84
2023/04/10 10:36:43;;;;;;;9.60;7.00;;;15.50;98.60;;;;;;4759141;30;20165;-84
2023/04/10 10:39:20;;;;;;;8.57;7.68;;;15.20;99.60;;;;;;4751774;30;20999;-83
2023/04/10 10:41:53;;;;;;;6.72;6.13;;;15.50;99.90;;;;;;4762000;30;20047;-85
2023/04/10 10:48:01;;;;;;;7.15;6.53;;;15.60;99.10;;;;;;4774159;30;20139;-82
2023/04/10 10:51:00;;;;;;;6.80;6.20;;;15.30;99.00;;;;;;4754079;30;20084;-85
2023/04/10 10:53:38;;;;;;;7.18;6.20;;;15.20;98.80;;;;;;4754214;30;20118;-84
2023/04/10 10:56:19;;;;;;;6.28;5.75;;;15.20;99.10;;;;;;4769291;30;20415;-86
2023/04/10 10:58:49;;;;;;;6.07;5.53;;;15.20;99.50;;;;;;4738860;30;20115;-84
2023/04/10 11:01:16;;;;;;;5.88;5.32;;;15.20;99.30;;;;;;4753876;30;20052;-85
2023/04/10 11:03:43;;;;;;;5.70;5.13;;;15.20;99.70;;;;;;4770391;30;20131;-85
2023/04/10 11:06:18;;;;;;;6.45;5.80;;;15.30;99.60;;;;;;4767319;30;20055;-84
2023/04/10 11:08:48;;;;;;;5.00;4.50;;;15.20;99.80;;;;;;4770254;30;20130;-83
2023/04/10 11:11:18;;;;;;;8.85;5.45;;;15.20;99.30;;;;;;4757657;30;20970;-84
2023/04/10 11:13:57;;;;;;;5.70;5.18;;;15.10;99.90;;;;;;4767336;30;20408;-85
2023/04/10 11:16:48;;;;;;;11.13;5.10;;;15.40;99.70;;;;;;4757435;30;20127;-84
2023/04/10 11:19:16;;;;;;;8.52;5.10;;;15.50;99.70;;;;;;4768210;30;20052;-84
2023/04/10 11:22:14;;;;;;;6.82;4.63;;;15.50;99.30;;;;;;4769218;30;20093;-83
2023/04/10 11:24:53;;;;;;;4.32;3.83;;;15.60;98.70;;;;;;4750587;30;20063;-84
2023/04/10 11:27:57;;;;;;;5.38;4.55;;;15.60;99.30;;;;;;4764362;29;20479;-85
2023/04/10 11:30:39;;;;;;;4.72;4.22;;;15.60;98.70;;;;;;4764042;30;20108;-84
2023/04/10 11:33:18;;;;;;;5.35;4.00;;;15.60;99.00;;;;;;4772271;30;20056;-84
2023/04/10 11:36:01;;;;;;;5.45;4.65;;;15.50;98.90;;;;;;4762132;30;20122;-85
2023/04/10 11:39:17;;;;;;;5.43;4.20;;;15.60;99.60;;;;;;4750091;30;20060;-85
2023/04/10 11:41:48;;;;;;;7.88;4.07;;;15.60;99.00;;;;;;4773402;30;20127;-85
2023/04/10 11:44:43;;;;;;;4.32;3.60;;;15.60;99.00;;;;;;4775056;30;20127;-86
2023/04/10 11:47:13;;;;;;;7.95;4.07;;;15.50;99.10;;;;;;4757455;30;20044;-84
2023/04/10 11:49:38;;;;;;;4.60;3.78;;;15.50;98.70;;;;;;4755129;30;20051;-84
2023/04/10 11:52:04;;;;;;;5.90;4.00;;;15.70;99.00;;;;;;4772699;30;20055;-84
2023/04/10 11:54:30;;;;;;;7.18;3.80;;;15.60;98.70;;;;;;4756196;30;20415;-83
2023/04/10 11:57:10;;;;;;;6.32;3.35;;;15.60;98.70;;;;;;4773005;30;20116;-84
2023/04/10 11:59:41;;;;;;;4.55;3.90;;;15.80;99.10;;;;;;4757226;30;20056;-85
2023/04/10 12:02:15;;;;;;;6.15;4.18;;;15.90;99.40;;;;;;4769049;30;20052;-84
2023/04/10 12:04:42;;;;;;;5.97;3.95;;;16.10;99.00;;;;;;4773654;30;20044;-84
2023/04/10 12:07:09;;;;;;;5.38;3.83;;;16.20;99.20;;;;;;4757290;30;20144;-86
2023/04/10 12:09:35;;;;;;;6.88;4.05;;;16.20;98.20;;;;;;4782602;30;20732;-87
2023/04/10 12:12:07;;;;;;;4.30;3.72;;;16.30;98.30;;;;;;4743743;30;20403;-82
2023/04/10 12:14:34;;;;;;;4.10;3.55;;;16.20;98.30;;;;;;4761287;30;20074;-86
2023/04/10 12:17:01;;;;;;;5.13;4.00;;;16.80;99.20;;;;;;4759365;30;20051;-84
2023/04/10 12:19:29;;;;;;;6.50;3.75;;;16.50;98.30;;;;;;4756473;30;20067;-85
2023/04/10 12:22:11;;;;;;;4.78;3.70;;;16.70;99.20;;;;;;4755258;30;20043;-85
2023/04/10 12:24:56;;;;;;;3.92;3.53;;;16.70;98.40;;;;;;4753751;30;20051;-82
2023/04/10 12:27:26;;;;;;;4.03;3.63;;;16.80;99.30;;;;;;4753485;30;20118;-85
2023/04/10 12:29:57;;;;;;;6.60;4.47;;;17.30;98.70;;;;;;4767944;30;20048;-84
2023/04/10 12:32:24;;;;;;;10.25;5.40;;;16.80;98.60;;;;;;4770134;30;20055;-85
2023/04/10 12:35:15;;;;;;;4.85;3.92;;;16.70;99.00;;;;;;4752575;30;20047;-86
2023/04/10 12:37:58;;;;;;;5.65;3.95;;;16.50;98.90;;;;;;4753892;30;20051;-85
2023/04/10 12:41:28;;;;;;;6.70;4.07;;;16.40;99.90;;;;;;4767221;30;20130;-85
2023/04/10 12:44:12;;;;;;;6.35;4.18;;;16.20;99.60;;;;;;4753352;30;20055;-85
2023/04/10 12:46:40;;;;;;;5.47;3.47;;;16.10;99.60;;;;;;4752716;30;20047;-83
2023/04/10 12:50:21;;;;;;;5.72;3.63;;;16.10;99.30;;;;;;4756767;30;20416;-84
2023/04/10 12:53:55;;;;;;;4.10;3.53;;;16.10;99.90;;;;;;4743023;30;20127;-84